createdAt,value
2017-06-29T06:39:35.555Z,24.80
2017-06-29T06:42:05.122Z,29.30
2017-06-29T06:44:32.903Z,27.67
2017-06-29T06:47:00.690Z,24.00
2017-06-29T06:49:28.377Z,17.30
2017-06-29T06:51:56.453Z,21.87
2017-06-29T06:54:24.104Z,23.03
2017-06-29T06:56:51.851Z,20.20
2017-06-29T06:59:19.718Z,29.00
2017-06-29T07:01:47.480Z,22.47
2017-06-29T07:04:15.348Z,18.87
2017-06-29T07:06:43.010Z,25.63
2017-06-29T07:09:10.686Z,23.27
2017-06-29T07:11:38.434Z,18.90
2017-06-29T07:14:06.560Z,26.43
2017-06-29T07:16:34.290Z,28.60
2017-06-29T07:19:01.959Z,28.73
2017-06-29T07:21:29.798Z,28.93
2017-06-29T07:23:57.521Z,31.00
2017-06-29T07:26:25.453Z,36.37
2017-06-29T07:28:53.351Z,32.50
2017-06-29T07:31:21.265Z,35.60
2017-06-29T07:33:49.148Z,41.03
2017-06-29T07:36:17.209Z,37.37
2017-06-29T07:38:45.074Z,37.10
2017-06-29T07:41:12.801Z,34.10
2017-06-29T07:43:40.685Z,37.37
2017-06-29T07:46:08.487Z,34.20
2017-06-29T07:48:36.332Z,31.13
2017-06-29T07:51:04.067Z,39.90
2017-06-29T07:53:31.860Z,37.97
2017-06-29T07:55:59.845Z,38.03
2017-06-29T07:58:28.661Z,38.40
2017-06-29T08:00:57.320Z,30.60
2017-06-29T08:03:25.193Z,38.00
2017-06-29T08:05:52.982Z,39.23
2017-06-29T08:08:21.490Z,43.27
2017-06-29T08:10:49.284Z,45.00
2017-06-29T08:13:17.165Z,45.20
2017-06-29T08:15:45.322Z,44.80
2017-06-29T08:18:13.087Z,44.10
2017-06-29T08:20:40.887Z,40.40
2017-06-29T08:23:09.475Z,42.97
2017-06-29T08:25:37.970Z,36.60
2017-06-29T08:28:06.616Z,37.73
2017-06-29T08:30:34.482Z,37.70
2017-06-29T08:33:02.644Z,28.47
2017-06-29T08:35:30.425Z,33.60
2017-06-29T08:37:58.292Z,31.03
2017-06-29T08:40:26.156Z,26.00
2017-06-29T08:42:53.947Z,26.60
2017-06-29T08:45:22.488Z,27.17
2017-06-29T08:47:50.354Z,23.00
2017-06-29T08:50:18.495Z,24.90
2017-06-29T08:52:46.394Z,21.20
2017-06-29T08:55:14.164Z,16.20
2017-06-29T08:57:42.024Z,26.03
2017-06-29T09:00:09.788Z,18.87
2017-06-29T09:02:37.674Z,25.70
2017-06-29T09:05:05.544Z,23.83
2017-06-29T09:07:33.701Z,19.53
2017-06-29T09:10:01.564Z,20.40
2017-06-29T09:12:29.378Z,16.30
2017-06-29T09:14:57.930Z,18.20
2017-06-29T09:17:25.779Z,12.80
2017-06-29T09:19:53.644Z,18.70
2017-06-29T09:22:21.528Z,20.43
2017-06-29T09:24:49.808Z,20.63
2017-06-29T09:27:17.670Z,23.50
2017-06-29T09:29:45.823Z,21.97
2017-06-29T09:32:13.815Z,22.10
2017-06-29T09:34:41.581Z,22.10
2017-06-29T09:37:09.552Z,21.93
2017-06-29T09:39:37.416Z,22.03
2017-06-29T09:42:05.688Z,21.20
2017-06-29T09:44:33.450Z,23.17
2017-06-29T09:47:01.321Z,18.73
2017-06-29T09:49:29.085Z,18.13
2017-06-29T09:51:56.832Z,18.23
2017-06-29T09:54:24.697Z,15.30
2017-06-29T09:56:52.460Z,20.50
2017-06-29T09:59:20.635Z,20.70
2017-06-29T10:01:48.402Z,21.57
2017-06-29T10:04:16.165Z,19.13
2017-06-29T10:06:44.056Z,18.07
2017-06-29T10:09:11.793Z,20.77
2017-06-29T10:11:39.678Z,21.60
2017-06-29T10:14:07.529Z,18.10
2017-06-29T10:16:35.723Z,18.67
2017-06-29T10:19:03.591Z,18.50
2017-06-29T10:21:31.455Z,21.30
2017-06-29T10:24:00.124Z,20.53
2017-06-29T10:26:27.859Z,16.27
2017-06-29T10:28:55.692Z,15.90
2017-06-29T10:31:23.528Z,16.10
2017-06-29T10:33:51.715Z,15.60
2017-06-29T10:36:19.457Z,9.23
2017-06-29T10:38:47.235Z,13.67
2017-06-29T10:41:15.109Z,13.27
2017-06-29T10:43:42.978Z,11.97
2017-06-29T10:46:10.794Z,10.57
2017-06-29T10:48:38.613Z,9.50
2017-06-29T10:51:06.914Z,9.20
2017-06-29T10:53:34.850Z,9.40
2017-06-29T10:56:02.682Z,8.67
2017-06-29T10:58:30.578Z,10.50
2017-06-29T11:00:58.292Z,7.60
2017-06-29T11:03:26.208Z,9.67
2017-06-29T11:05:53.986Z,10.03
2017-06-29T11:08:22.201Z,8.53
2017-06-29T11:10:50.122Z,9.40
2017-06-29T11:13:17.984Z,8.23
2017-06-29T11:15:45.831Z,6.50
2017-06-29T11:18:13.608Z,6.40
2017-06-29T11:20:41.279Z,9.27
2017-06-29T11:23:09.131Z,8.13
2017-06-29T11:25:37.402Z,6.80
2017-06-29T11:28:05.133Z,9.83
2017-06-29T11:30:32.850Z,8.90
2017-06-29T11:33:00.706Z,6.97
2017-06-29T11:35:28.478Z,8.60
2017-06-29T11:37:56.257Z,7.17
2017-06-29T11:40:24.089Z,6.67
2017-06-29T11:42:52.388Z,8.50
2017-06-29T11:45:20.247Z,9.80
2017-06-29T11:47:48.061Z,8.97
2017-06-29T11:50:15.812Z,7.87
2017-06-29T11:52:43.579Z,7.50
2017-06-29T11:55:11.290Z,6.83
2017-06-29T11:57:39.054Z,6.30
2017-06-29T12:00:07.161Z,5.63
2017-06-29T12:02:35.833Z,5.27
2017-06-29T12:05:03.699Z,5.40
2017-06-29T12:07:31.438Z,5.97
2017-06-29T12:09:59.169Z,5.47
2017-06-29T12:12:26.970Z,6.50
2017-06-29T12:14:54.735Z,7.73
2017-06-29T12:17:22.912Z,7.70
2017-06-29T12:19:50.671Z,6.90
2017-06-29T12:22:18.439Z,6.53
2017-06-29T12:24:46.327Z,5.40
2017-06-29T12:27:14.191Z,7.50
2017-06-29T12:29:42.047Z,5.40
2017-06-29T12:32:09.926Z,4.80
2017-06-29T12:34:38.091Z,7.40
2017-06-29T12:37:05.944Z,6.87
2017-06-29T12:39:33.792Z,6.30
2017-06-29T12:42:01.699Z,6.87
2017-06-29T12:44:29.569Z,6.87
2017-06-29T12:46:57.427Z,7.50
2017-06-29T12:49:25.220Z,6.50
2017-06-29T12:51:53.040Z,7.13
2017-06-29T12:54:21.011Z,6.27
2017-06-29T12:56:48.880Z,6.10
2017-06-29T12:59:16.757Z,4.77
2017-06-29T13:01:44.470Z,3.40
2017-06-29T13:04:12.478Z,4.07
2017-06-29T13:06:40.244Z,4.20
2017-06-29T13:09:08.025Z,5.20
2017-06-29T13:11:35.792Z,5.10
2017-06-29T13:14:03.653Z,4.93
2017-06-29T13:16:31.812Z,4.33
2017-06-29T13:18:59.699Z,4.87
2017-06-29T13:21:27.530Z,4.60
2017-06-29T13:23:55.440Z,4.00
2017-06-29T13:26:23.298Z,4.60
2017-06-29T13:28:51.463Z,3.63
2017-06-29T13:31:19.338Z,4.53
2017-06-29T13:33:47.090Z,4.43
2017-06-29T13:36:15.153Z,4.47
2017-06-29T13:38:42.916Z,5.10
2017-06-29T13:41:10.748Z,5.23
2017-06-29T13:43:38.676Z,6.43
2017-06-29T13:46:06.468Z,6.30
2017-06-29T13:48:35.103Z,6.00
2017-06-29T13:51:02.921Z,5.20
2017-06-29T13:53:30.991Z,6.20
2017-06-29T13:55:59.585Z,5.90
2017-06-29T13:58:27.406Z,5.47
2017-06-29T14:00:55.277Z,8.23
2017-06-29T14:03:23.035Z,7.53
2017-06-29T14:05:50.886Z,7.70
2017-06-29T14:08:18.648Z,8.23
2017-06-29T14:10:46.828Z,7.17
2017-06-29T14:13:14.589Z,8.40
2017-06-29T14:15:42.303Z,8.10
2017-06-29T14:18:10.873Z,6.97
2017-06-29T14:20:38.718Z,8.30
2017-06-29T14:23:06.498Z,6.67
2017-06-29T14:25:34.981Z,6.90
2017-06-29T14:28:03.635Z,8.40
2017-06-29T14:30:31.508Z,6.30
2017-06-29T14:32:59.299Z,6.47
2017-06-29T14:35:27.847Z,6.10
2017-06-29T14:37:55.721Z,5.70
2017-06-29T14:40:23.474Z,5.20
2017-06-29T14:42:51.480Z,5.50
2017-06-29T14:45:20.042Z,5.73
2017-06-29T14:47:47.790Z,5.50
2017-06-29T14:50:15.664Z,5.70
2017-06-29T14:52:43.433Z,6.07
2017-06-29T14:55:11.104Z,6.20
2017-06-29T14:57:38.851Z,6.67
2017-06-29T15:00:06.735Z,5.87
2017-06-29T15:02:34.602Z,6.43
2017-06-29T15:05:02.391Z,7.60
2017-06-29T15:07:30.939Z,7.97
2017-06-29T15:09:58.796Z,8.43
2017-06-29T15:12:26.487Z,8.33
2017-06-29T15:14:54.342Z,8.50
2017-06-29T15:17:22.101Z,7.80
2017-06-29T15:19:50.271Z,7.87
2017-06-29T15:22:18.135Z,6.60
2017-06-29T15:24:46.002Z,7.27
2017-06-29T15:27:13.878Z,7.40
2017-06-29T15:29:41.556Z,8.10
2017-06-29T15:32:09.811Z,7.17
2017-06-29T15:34:37.687Z,5.17
2017-06-29T15:37:05.484Z,6.83
2017-06-29T15:39:33.389Z,6.63
2017-06-29T15:42:01.188Z,6.23
2017-06-29T15:44:29.051Z,4.40
2017-06-29T15:46:56.793Z,5.20
2017-06-29T15:49:24.666Z,5.33
2017-06-29T15:51:52.425Z,6.10
2017-06-29T15:54:20.258Z,5.37
2017-06-29T15:56:48.073Z,5.63
2017-06-29T15:59:16.173Z,5.47
2017-06-29T16:01:44.711Z,5.90
2017-06-29T16:04:12.490Z,4.63
2017-06-29T16:06:40.358Z,5.07
2017-06-29T16:09:08.516Z,5.00
2017-06-29T16:11:36.517Z,5.00
2017-06-29T16:14:04.460Z,5.40
2017-06-29T16:16:41.074Z,5.47
2017-06-29T16:19:09.100Z,6.10
2017-06-29T16:21:38.333Z,7.10
2017-06-29T16:24:06.168Z,6.60
2017-06-29T16:26:34.076Z,7.60
2017-06-29T16:29:06.068Z,8.27
2017-06-29T16:31:35.677Z,9.13
2017-06-29T16:34:03.683Z,9.10
2017-06-29T16:36:32.066Z,9.40
2017-06-29T16:39:01.783Z,9.40
2017-06-29T16:41:32.167Z,9.73
2017-06-29T16:44:00.073Z,10.10
2017-06-29T16:46:27.918Z,10.60
2017-06-29T16:48:58.095Z,13.50
2017-06-29T16:51:26.009Z,13.10
2017-06-29T16:53:53.773Z,15.50
2017-06-29T16:56:22.652Z,15.77
2017-06-29T16:58:51.714Z,15.30
2017-06-29T17:01:19.829Z,15.60
2017-06-29T17:03:47.630Z,12.13
2017-06-29T17:06:16.178Z,16.23
2017-06-29T17:08:43.850Z,13.80
2017-06-29T17:11:11.518Z,12.33
2017-06-29T17:13:39.675Z,13.53
2017-06-29T17:16:07.440Z,12.50
2017-06-29T17:18:35.204Z,15.03
2017-06-29T17:21:02.966Z,15.50
2017-06-29T17:23:30.734Z,17.90
2017-06-29T17:25:58.495Z,17.67
2017-06-29T17:28:26.179Z,17.40
2017-06-29T17:30:54.331Z,16.60
2017-06-29T17:33:22.224Z,17.07
2017-06-29T17:35:50.067Z,16.97
2017-06-29T17:38:17.827Z,17.77
2017-06-29T17:40:46.049Z,16.30
2017-06-29T17:43:14.586Z,15.90
2017-06-29T17:45:42.374Z,16.90
2017-06-29T17:48:10.619Z,21.67
2017-06-29T17:50:38.255Z,16.17
2017-06-29T17:53:06.055Z,16.93
2017-06-29T17:55:33.820Z,16.30
2017-06-29T17:58:01.580Z,16.80
2017-06-29T18:00:29.268Z,16.20
2017-06-29T18:02:56.933Z,17.07
2017-06-29T18:05:25.083Z,16.00
2017-06-29T18:07:52.739Z,16.70
2017-06-29T18:10:20.504Z,18.60
2017-06-29T18:12:48.269Z,18.30
2017-06-29T18:15:15.930Z,18.03
2017-06-29T18:17:43.590Z,15.63
2017-06-29T18:20:11.356Z,10.93
2017-06-29T18:22:39.349Z,9.73
2017-06-29T18:25:07.091Z,13.20
2017-06-29T18:27:34.856Z,9.97
2017-06-29T18:30:02.723Z,11.10
2017-06-29T18:32:30.360Z,13.90
2017-06-29T18:34:58.249Z,11.13
2017-06-29T18:37:25.931Z,12.20
2017-06-29T18:39:54.188Z,10.80
2017-06-29T18:42:21.954Z,9.70
2017-06-29T18:44:49.634Z,8.17
2017-06-29T18:47:17.400Z,9.30
2017-06-29T18:49:45.249Z,9.80
2017-06-29T18:52:13.114Z,7.60
2017-06-29T18:54:40.800Z,6.60
2017-06-29T18:57:08.846Z,6.60
2017-06-29T18:59:36.550Z,6.00
2017-06-29T19:02:05.091Z,5.93
2017-06-29T19:04:32.880Z,6.23
2017-06-29T19:07:00.722Z,6.90
2017-06-29T19:09:28.588Z,8.57
2017-06-29T19:11:56.249Z,9.13
2017-06-29T19:14:23.936Z,9.23
2017-06-29T19:16:51.781Z,8.30
2017-06-29T19:19:19.464Z,8.00
2017-06-29T19:21:47.208Z,8.80
2017-06-29T19:24:15.483Z,7.10
2017-06-29T19:26:43.180Z,7.03
2017-06-29T19:29:11.598Z,6.53
2017-06-29T19:31:39.303Z,6.17
2017-06-29T19:34:06.973Z,5.73
2017-06-29T19:36:34.813Z,5.97
2017-06-29T19:39:02.496Z,4.77
2017-06-29T19:41:30.649Z,4.50
2017-06-29T19:43:58.432Z,4.60
2017-06-29T19:46:26.278Z,5.27
2017-06-29T19:48:54.046Z,5.27
2017-06-29T19:51:21.812Z,5.27
2017-06-29T19:53:49.573Z,5.40
2017-06-29T19:56:17.337Z,5.17
2017-06-29T19:58:45.409Z,5.83
2017-06-29T20:01:13.096Z,6.30
2017-06-29T20:03:40.760Z,6.03
2017-06-29T20:06:08.598Z,6.23
2017-06-29T20:08:36.363Z,5.47
2017-06-29T20:11:04.128Z,5.73
2017-06-29T20:13:31.754Z,4.30
2017-06-29T20:15:59.774Z,5.27
2017-06-29T20:18:27.439Z,6.53
2017-06-29T20:20:55.079Z,4.83
2017-06-29T20:23:22.781Z,4.10
2017-06-29T20:25:51.329Z,6.10
2017-06-29T20:28:18.985Z,4.50
2017-06-29T20:30:46.758Z,5.30
2017-06-29T20:33:14.928Z,7.43
2017-06-29T20:35:42.692Z,7.17
2017-06-29T20:38:10.353Z,7.87
2017-06-29T20:40:38.041Z,6.40
2017-06-29T20:43:05.777Z,4.80
2017-06-29T20:45:33.544Z,4.87
2017-06-29T20:48:01.310Z,6.07
2017-06-29T20:50:29.381Z,5.83
2017-06-29T20:52:57.143Z,8.50
2017-06-29T20:55:24.910Z,5.37
2017-06-29T20:57:52.672Z,5.77
2017-06-29T21:00:20.307Z,5.93
2017-06-29T21:02:48.026Z,9.93
2017-06-29T21:05:15.865Z,6.40
2017-06-29T21:07:43.934Z,12.30
2017-06-29T21:10:11.597Z,10.47
2017-06-29T21:12:39.360Z,14.40
2017-06-29T21:15:07.045Z,11.37
2017-06-29T21:17:34.717Z,12.40
2017-06-29T21:20:02.551Z,12.53
2017-06-29T21:22:30.317Z,17.27
2017-06-29T21:24:58.386Z,12.00
2017-06-29T21:27:26.151Z,12.60
2017-06-29T21:29:53.846Z,14.17
2017-06-29T21:32:21.680Z,17.70
2017-06-29T21:34:49.446Z,12.97
2017-06-29T21:37:17.414Z,13.30
2017-06-29T21:39:45.177Z,12.33
2017-06-29T21:42:12.816Z,14.60
2017-06-29T21:44:40.532Z,14.30
2017-06-29T21:47:08.264Z,11.97
2017-06-29T21:49:36.338Z,13.77
2017-06-29T21:52:03.999Z,13.47
2017-06-29T21:54:31.763Z,13.67
2017-06-29T21:56:59.434Z,11.50
2017-06-29T21:59:27.191Z,16.73
2017-06-29T22:01:55.058Z,16.70
2017-06-29T22:04:22.819Z,11.70
2017-06-29T22:06:51.011Z,11.97
2017-06-29T22:09:18.759Z,16.20
2017-06-29T22:11:46.446Z,12.27
2017-06-29T22:14:14.286Z,13.37
2017-06-29T22:16:41.918Z,9.90
2017-06-29T22:19:09.712Z,10.40
2017-06-29T22:21:37.397Z,12.60
2017-06-29T22:24:05.472Z,12.20
2017-06-29T22:26:33.103Z,13.50
2017-06-29T22:29:00.872Z,11.07
2017-06-29T22:31:28.840Z,13.27
2017-06-29T22:33:56.528Z,14.27
2017-06-29T22:36:24.287Z,13.27
2017-06-29T22:38:52.034Z,10.10
2017-06-29T22:41:20.106Z,10.43
2017-06-29T22:43:47.868Z,9.73
2017-06-29T22:46:15.632Z,10.87
2017-06-29T22:48:43.299Z,10.30
2017-06-29T22:51:10.941Z,9.50
2017-06-29T22:53:38.718Z,13.40
2017-06-29T22:56:06.346Z,12.80
2017-06-29T22:58:34.452Z,11.27
2017-06-29T23:01:02.218Z,9.63
2017-06-29T23:03:29.979Z,8.50
2017-06-29T23:05:57.744Z,7.80
2017-06-29T23:08:25.509Z,8.70
2017-06-29T23:10:53.191Z,8.80
2017-06-29T23:13:20.959Z,8.03
2017-06-29T23:15:49.111Z,8.77
2017-06-29T23:18:16.875Z,8.63
2017-06-29T23:20:44.639Z,8.83
2017-06-29T23:23:12.401Z,8.40
2017-06-29T23:25:40.099Z,7.80
2017-06-29T23:28:08.568Z,4.90
2017-06-29T23:30:36.313Z,8.27
2017-06-29T23:33:04.381Z,7.50
2017-06-29T23:35:32.147Z,6.10
2017-06-29T23:37:59.805Z,8.60
2017-06-29T23:40:27.501Z,6.13
2017-06-29T23:42:55.232Z,7.73
2017-06-29T23:45:22.997Z,5.77
2017-06-29T23:47:50.658Z,7.53
2017-06-29T23:50:18.732Z,7.10
2017-06-29T23:52:46.370Z,6.37
2017-06-29T23:55:14.156Z,10.53
2017-06-29T23:57:41.921Z,11.90
